VABO

Details ICAO VABO (BDQ)
Name VADODARA
Region India
Timezone Asia/Kolkata (UTC+5.5)
Plans Departing 4
Arriving 16
Stats Elevation 129 ft / 39 m (AMSL)
Location 22.336164° 73.226291°
Runways 1
Magnetic Variation 0.328° E
Sunrise 2017-12-11 01:37:55 UTC / 2017-12-11 07:07:55 Local
Sunset 2017-12-11 12:25:31 UTC / 2017-12-11 17:55:31 Local
Advertisement - Login to hide

Runways

ID Width Length Bearing (true) Bearing (mag) Surface Threshold Offset Overrun Length
04 150 ft / 46 m 8,084 ft / 2,464 m 44.10° 43.77° Asphalt 700 ft / 213 m 200 ft / 61 m
22 150 ft / 46 m 8,084 ft / 2,464 m 224.11° 223.78° Asphalt 0 ft / 0 m 200 ft / 61 m

Approach Navaids

Runway Type Ident Frequency Range Bearing (true) Bearing (mag) Slope Elevation
22 Localiser VDD 110.50 MHz 18 nm / 33 km 224.11° 223.78° - 129 ft / 39 m (AMSL)
22 Glidescope VDD 110.50 MHz 10 nm / 19 km 224.11° 223.78° 3.00° 129 ft / 39 m (AMSL)
22 DME VDD 110.50 MHz 18 nm / 33 km - - - 129 ft / 39 m (AMSL)

Map

Weather


0- 5 10 15 20 25 30 35+ Temperature / ° C

Clouds and Precipitation
Forecast for 2017-12-11 12:00 UTC. Updated 10 minutes ago

Ground ~20,000 ft ~40,000 ft Winds

METAR

VABO 110930Z 22003KT 6000 NSC 30/12 Q1011 NOSIG

TAF

Not found

Frequencies

Tower 122.35 MHz BARODA TWR
Warning: Do not use this data for real-world aviation or navigation. No guarantee of current accuracy is given.